sensor_id;sensor_type;location;lat;lon;timestamp;P1;durP1;ratioP1;P2;durP2;ratioP2
29430;SDS011;16404;49.902;10.074;2024-03-08T00:00:01;37.92;;;19.75;;
29430;SDS011;16404;49.902;10.074;2024-03-08T00:02:55;37.53;;;20.05;;
29430;SDS011;16404;49.902;10.074;2024-03-08T00:05:40;40.13;;;19.75;;
29430;SDS011;16404;49.902;10.074;2024-03-08T00:08:25;35.28;;;19.40;;
29430;SDS011;16404;49.902;10.074;2024-03-08T00:11:09;40.13;;;19.35;;
29430;SDS011;16404;49.902;10.074;2024-03-08T00:13:54;36.95;;;19.73;;
29430;SDS011;16404;49.902;10.074;2024-03-08T00:16:39;35.40;;;18.83;;
29430;SDS011;16404;49.902;10.074;2024-03-08T00:19:27;36.08;;;18.58;;
29430;SDS011;16404;49.902;10.074;2024-03-08T00:22:12;36.17;;;19.75;;
29430;SDS011;16404;49.902;10.074;2024-03-08T00:24:56;35.58;;;18.83;;
29430;SDS011;16404;49.902;10.074;2024-03-08T00:27:41;33.33;;;18.17;;
29430;SDS011;16404;49.902;10.074;2024-03-08T00:30:25;37.50;;;19.52;;
29430;SDS011;16404;49.902;10.074;2024-03-08T00:33:10;39.10;;;20.05;;
29430;SDS011;16404;49.902;10.074;2024-03-08T00:35:54;33.15;;;19.00;;
29430;SDS011;16404;49.902;10.074;2024-03-08T00:38:39;35.55;;;18.08;;
29430;SDS011;16404;49.902;10.074;2024-03-08T00:41:24;40.50;;;19.65;;
29430;SDS011;16404;49.902;10.074;2024-03-08T00:44:10;35.80;;;18.30;;
29430;SDS011;16404;49.902;10.074;2024-03-08T00:46:54;36.50;;;18.73;;
29430;SDS011;16404;49.902;10.074;2024-03-08T00:49:40;36.95;;;19.98;;
29430;SDS011;16404;49.902;10.074;2024-03-08T00:52:25;35.63;;;18.42;;
29430;SDS011;16404;49.902;10.074;2024-03-08T00:55:10;38.17;;;18.63;;
29430;SDS011;16404;49.902;10.074;2024-03-08T00:57:55;36.67;;;19.88;;
29430;SDS011;16404;49.902;10.074;2024-03-08T01:00:39;33.10;;;18.17;;
29430;SDS011;16404;49.902;10.074;2024-03-08T01:03:24;40.70;;;19.63;;
29430;SDS011;16404;49.902;10.074;2024-03-08T01:06:09;34.72;;;17.77;;
29430;SDS011;16404;49.902;10.074;2024-03-08T01:08:55;36.13;;;18.23;;
29430;SDS011;16404;49.902;10.074;2024-03-08T01:11:39;35.38;;;18.52;;
29430;SDS011;16404;49.902;10.074;2024-03-08T01:14:25;41.72;;;20.35;;
29430;SDS011;16404;49.902;10.074;2024-03-08T01:17:10;34.75;;;18.50;;
29430;SDS011;16404;49.902;10.074;2024-03-08T01:19:55;41.67;;;19.25;;
29430;SDS011;16404;49.902;10.074;2024-03-08T01:22:40;32.78;;;19.30;;
29430;SDS011;16404;49.902;10.074;2024-03-08T01:25:24;37.33;;;19.33;;
29430;SDS011;16404;49.902;10.074;2024-03-08T01:28:09;40.42;;;21.05;;
29430;SDS011;16404;49.902;10.074;2024-03-08T01:30:54;36.78;;;19.55;;
29430;SDS011;16404;49.902;10.074;2024-03-08T01:33:41;44.88;;;21.45;;
29430;SDS011;16404;49.902;10.074;2024-03-08T01:36:26;40.10;;;21.25;;
29430;SDS011;16404;49.902;10.074;2024-03-08T01:39:10;41.40;;;21.55;;
29430;SDS011;16404;49.902;10.074;2024-03-08T01:41:55;43.92;;;22.00;;
29430;SDS011;16404;49.902;10.074;2024-03-08T01:44:39;41.10;;;21.45;;
29430;SDS011;16404;49.902;10.074;2024-03-08T01:47:24;45.92;;;21.50;;
29430;SDS011;16404;49.902;10.074;2024-03-08T01:50:09;44.05;;;21.63;;
29430;SDS011;16404;49.902;10.074;2024-03-08T01:52:54;48.65;;;22.20;;
29430;SDS011;16404;49.902;10.074;2024-03-08T01:55:39;46.55;;;22.65;;
29430;SDS011;16404;49.902;10.074;2024-03-08T01:58:24;47.72;;;22.52;;
29430;SDS011;16404;49.902;10.074;2024-03-08T02:01:12;43.47;;;22.20;;
29430;SDS011;16404;49.902;10.074;2024-03-08T02:03:58;48.70;;;23.42;;
29430;SDS011;16404;49.902;10.074;2024-03-08T02:06:42;46.40;;;23.10;;
29430;SDS011;16404;49.902;10.074;2024-03-08T02:09:28;41.65;;;22.90;;
29430;SDS011;16404;49.902;10.074;2024-03-08T02:12:13;48.08;;;22.10;;
29430;SDS011;16404;49.902;10.074;2024-03-08T02:14:58;41.30;;;21.65;;
29430;SDS011;16404;49.902;10.074;2024-03-08T02:17:42;42.17;;;20.52;;
29430;SDS011;16404;49.902;10.074;2024-03-08T02:20:28;43.40;;;20.75;;
29430;SDS011;16404;49.902;10.074;2024-03-08T02:23:13;45.38;;;21.02;;
29430;SDS011;16404;49.902;10.074;2024-03-08T02:25:58;40.78;;;19.40;;
29430;SDS011;16404;49.902;10.074;2024-03-08T02:28:43;43.72;;;22.48;;
29430;SDS011;16404;49.902;10.074;2024-03-08T02:31:28;44.67;;;21.50;;
29430;SDS011;16404;49.902;10.074;2024-03-08T02:34:13;40.53;;;21.73;;
29430;SDS011;16404;49.902;10.074;2024-03-08T02:36:58;41.95;;;21.50;;
29430;SDS011;16404;49.902;10.074;2024-03-08T02:39:43;42.90;;;20.80;;
29430;SDS011;16404;49.902;10.074;2024-03-08T02:42:27;42.72;;;21.20;;
29430;SDS011;16404;49.902;10.074;2024-03-08T02:45:12;39.47;;;21.05;;
29430;SDS011;16404;49.902;10.074;2024-03-08T02:50:41;41.40;;;20.27;;
29430;SDS011;16404;49.902;10.074;2024-03-08T02:53:28;40.13;;;21.15;;
29430;SDS011;16404;49.902;10.074;2024-03-08T02:56:13;44.85;;;20.88;;
29430;SDS011;16404;49.902;10.074;2024-03-08T02:59:00;47.33;;;22.88;;
29430;SDS011;16404;49.902;10.074;2024-03-08T03:01:45;39.45;;;21.30;;
29430;SDS011;16404;49.902;10.074;2024-03-08T03:04:29;40.47;;;20.83;;
29430;SDS011;16404;49.902;10.074;2024-03-08T03:07:14;41.20;;;19.75;;
29430;SDS011;16404;49.902;10.074;2024-03-08T03:09:59;40.28;;;20.35;;
29430;SDS011;16404;49.902;10.074;2024-03-08T03:12:47;39.10;;;20.83;;
29430;SDS011;16404;49.902;10.074;2024-03-08T03:15:32;38.63;;;19.15;;
29430;SDS011;16404;49.902;10.074;2024-03-08T03:18:17;41.63;;;20.27;;
29430;SDS011;16404;49.902;10.074;2024-03-08T03:21:05;41.58;;;20.60;;
29430;SDS011;16404;49.902;10.074;2024-03-08T03:23:51;39.72;;;21.17;;
29430;SDS011;16404;49.902;10.074;2024-03-08T03:26:37;41.88;;;20.90;;
29430;SDS011;16404;49.902;10.074;2024-03-08T03:29:24;40.00;;;20.25;;
29430;SDS011;16404;49.902;10.074;2024-03-08T03:32:09;46.08;;;21.95;;
29430;SDS011;16404;49.902;10.074;2024-03-08T03:34:53;45.88;;;23.30;;
29430;SDS011;16404;49.902;10.074;2024-03-08T03:37:38;48.20;;;22.33;;
29430;SDS011;16404;49.902;10.074;2024-03-08T03:40:23;45.20;;;21.73;;
29430;SDS011;16404;49.902;10.074;2024-03-08T03:43:08;46.60;;;22.23;;
29430;SDS011;16404;49.902;10.074;2024-03-08T03:45:53;56.45;;;24.65;;
29430;SDS011;16404;49.902;10.074;2024-03-08T03:48:38;49.28;;;23.70;;
29430;SDS011;16404;49.902;10.074;2024-03-08T03:51:22;48.15;;;24.10;;
29430;SDS011;16404;49.902;10.074;2024-03-08T03:54:07;50.28;;;23.58;;
29430;SDS011;16404;49.902;10.074;2024-03-08T03:56:51;48.25;;;23.70;;
29430;SDS011;16404;49.902;10.074;2024-03-08T03:59:37;51.42;;;25.05;;
29430;SDS011;16404;49.902;10.074;2024-03-08T04:02:21;52.58;;;23.95;;
29430;SDS011;16404;49.902;10.074;2024-03-08T04:05:06;51.45;;;24.02;;
29430;SDS011;16404;49.902;10.074;2024-03-08T04:07:51;52.30;;;24.75;;
29430;SDS011;16404;49.902;10.074;2024-03-08T04:10:36;53.22;;;25.92;;
29430;SDS011;16404;49.902;10.074;2024-03-08T04:13:20;56.72;;;25.35;;
29430;SDS011;16404;49.902;10.074;2024-03-08T04:16:05;53.42;;;23.67;;
29430;SDS011;16404;49.902;10.074;2024-03-08T04:18:51;49.30;;;23.80;;
29430;SDS011;16404;49.902;10.074;2024-03-08T04:24:20;56.40;;;24.58;;
29430;SDS011;16404;49.902;10.074;2024-03-08T04:27:05;51.83;;;25.00;;
29430;SDS011;16404;49.902;10.074;2024-03-08T04:32:34;49.22;;;23.73;;
29430;SDS011;16404;49.902;10.074;2024-03-08T04:35:19;52.80;;;25.38;;
29430;SDS011;16404;49.902;10.074;2024-03-08T04:40:49;47.15;;;23.58;;
29430;SDS011;16404;49.902;10.074;2024-03-08T04:43:34;51.63;;;24.40;;
29430;SDS011;16404;49.902;10.074;2024-03-08T04:46:19;55.03;;;24.60;;
29430;SDS011;16404;49.902;10.074;2024-03-08T04:49:03;53.15;;;24.63;;
29430;SDS011;16404;49.902;10.074;2024-03-08T04:51:48;52.63;;;25.27;;
29430;SDS011;16404;49.902;10.074;2024-03-08T04:54:33;54.55;;;25.65;;
29430;SDS011;16404;49.902;10.074;2024-03-08T04:57:18;53.97;;;26.20;;
29430;SDS011;16404;49.902;10.074;2024-03-08T05:00:03;47.70;;;23.90;;
29430;SDS011;16404;49.902;10.074;2024-03-08T05:02:54;54.00;;;25.90;;
29430;SDS011;16404;49.902;10.074;2024-03-08T05:05:39;52.13;;;25.85;;
29430;SDS011;16404;49.902;10.074;2024-03-08T05:08:23;55.60;;;27.17;;
29430;SDS011;16404;49.902;10.074;2024-03-08T05:11:08;54.25;;;26.40;;
29430;SDS011;16404;49.902;10.074;2024-03-08T05:13:53;54.88;;;26.77;;
29430;SDS011;16404;49.902;10.074;2024-03-08T05:16:38;61.92;;;26.80;;
29430;SDS011;16404;49.902;10.074;2024-03-08T05:19:23;60.35;;;27.23;;
29430;SDS011;16404;49.902;10.074;2024-03-08T05:22:07;62.80;;;27.55;;
29430;SDS011;16404;49.902;10.074;2024-03-08T05:24:52;55.72;;;26.88;;
29430;SDS011;16404;49.902;10.074;2024-03-08T05:27:37;55.83;;;26.67;;
29430;SDS011;16404;49.902;10.074;2024-03-08T05:30:21;56.10;;;27.52;;
29430;SDS011;16404;49.902;10.074;2024-03-08T05:33:06;52.80;;;25.80;;
29430;SDS011;16404;49.902;10.074;2024-03-08T05:35:53;55.90;;;26.92;;
29430;SDS011;16404;49.902;10.074;2024-03-08T05:38:38;52.55;;;25.73;;
29430;SDS011;16404;49.902;10.074;2024-03-08T05:41:22;50.85;;;25.30;;
29430;SDS011;16404;49.902;10.074;2024-03-08T05:44:07;53.67;;;25.67;;
29430;SDS011;16404;49.902;10.074;2024-03-08T05:49:36;52.50;;;25.70;;
29430;SDS011;16404;49.902;10.074;2024-03-08T05:52:21;58.35;;;27.33;;
29430;SDS011;16404;49.902;10.074;2024-03-08T05:55:05;58.65;;;29.13;;
29430;SDS011;16404;49.902;10.074;2024-03-08T05:57:51;56.47;;;27.67;;
29430;SDS011;16404;49.902;10.074;2024-03-08T06:00:37;60.13;;;28.15;;
29430;SDS011;16404;49.902;10.074;2024-03-08T06:03:22;62.15;;;28.73;;
29430;SDS011;16404;49.902;10.074;2024-03-08T06:06:06;60.15;;;27.88;;
29430;SDS011;16404;49.902;10.074;2024-03-08T06:08:51;54.47;;;26.23;;
29430;SDS011;16404;49.902;10.074;2024-03-08T06:11:36;55.65;;;27.75;;
29430;SDS011;16404;49.902;10.074;2024-03-08T06:14:21;58.38;;;27.25;;
29430;SDS011;16404;49.902;10.074;2024-03-08T06:17:05;59.63;;;27.80;;
29430;SDS011;16404;49.902;10.074;2024-03-08T06:19:51;55.40;;;27.23;;
29430;SDS011;16404;49.902;10.074;2024-03-08T06:22:37;59.00;;;28.85;;
29430;SDS011;16404;49.902;10.074;2024-03-08T06:25:24;54.70;;;27.90;;
29430;SDS011;16404;49.902;10.074;2024-03-08T06:28:09;60.17;;;28.23;;
29430;SDS011;16404;49.902;10.074;2024-03-08T06:30:53;60.00;;;27.90;;
29430;SDS011;16404;49.902;10.074;2024-03-08T06:33:38;58.05;;;27.58;;
29430;SDS011;16404;49.902;10.074;2024-03-08T06:36:22;55.95;;;27.42;;
29430;SDS011;16404;49.902;10.074;2024-03-08T06:39:07;59.53;;;27.58;;
29430;SDS011;16404;49.902;10.074;2024-03-08T06:41:54;60.58;;;29.42;;
29430;SDS011;16404;49.902;10.074;2024-03-08T06:44:39;61.35;;;27.75;;
29430;SDS011;16404;49.902;10.074;2024-03-08T06:47:32;56.33;;;27.77;;
29430;SDS011;16404;49.902;10.074;2024-03-08T06:50:17;56.75;;;27.52;;
29430;SDS011;16404;49.902;10.074;2024-03-08T06:53:01;54.47;;;27.08;;
29430;SDS011;16404;49.902;10.074;2024-03-08T06:55:46;58.30;;;28.48;;
29430;SDS011;16404;49.902;10.074;2024-03-08T06:58:31;55.00;;;27.90;;
29430;SDS011;16404;49.902;10.074;2024-03-08T07:01:16;57.67;;;28.20;;
29430;SDS011;16404;49.902;10.074;2024-03-08T07:04:01;57.38;;;28.58;;
29430;SDS011;16404;49.902;10.074;2024-03-08T07:06:49;57.30;;;27.67;;
29430;SDS011;16404;49.902;10.074;2024-03-08T07:09:33;58.53;;;29.20;;
29430;SDS011;16404;49.902;10.074;2024-03-08T07:12:18;56.30;;;28.77;;
29430;SDS011;16404;49.902;10.074;2024-03-08T07:15:05;53.85;;;28.48;;
29430;SDS011;16404;49.902;10.074;2024-03-08T07:17:50;57.15;;;27.85;;
29430;SDS011;16404;49.902;10.074;2024-03-08T07:20:36;57.08;;;27.67;;
29430;SDS011;16404;49.902;10.074;2024-03-08T07:23:21;58.05;;;28.40;;
29430;SDS011;16404;49.902;10.074;2024-03-08T07:26:24;55.50;;;28.70;;
29430;SDS011;16404;49.902;10.074;2024-03-08T07:29:08;54.78;;;28.08;;
29430;SDS011;16404;49.902;10.074;2024-03-08T07:31:53;62.20;;;27.67;;
29430;SDS011;16404;49.902;10.074;2024-03-08T07:34:56;58.33;;;28.30;;
29430;SDS011;16404;49.902;10.074;2024-03-08T07:37:40;51.95;;;27.50;;
29430;SDS011;16404;49.902;10.074;2024-03-08T07:40:24;57.17;;;27.27;;
29430;SDS011;16404;49.902;10.074;2024-03-08T07:43:10;58.40;;;27.15;;
29430;SDS011;16404;49.902;10.074;2024-03-08T07:45:54;55.17;;;27.40;;
29430;SDS011;16404;49.902;10.074;2024-03-08T07:48:39;58.88;;;28.30;;
29430;SDS011;16404;49.902;10.074;2024-03-08T07:51:24;53.67;;;27.27;;
29430;SDS011;16404;49.902;10.074;2024-03-08T07:54:08;53.58;;;26.40;;
29430;SDS011;16404;49.902;10.074;2024-03-08T07:56:53;52.63;;;26.98;;
29430;SDS011;16404;49.902;10.074;2024-03-08T07:59:38;58.97;;;29.02;;
29430;SDS011;16404;49.902;10.074;2024-03-08T08:02:22;51.42;;;26.58;;
29430;SDS011;16404;49.902;10.074;2024-03-08T08:05:07;57.00;;;28.23;;
29430;SDS011;16404;49.902;10.074;2024-03-08T08:07:54;52.80;;;26.67;;
29430;SDS011;16404;49.902;10.074;2024-03-08T08:10:38;50.45;;;25.70;;
29430;SDS011;16404;49.902;10.074;2024-03-08T08:13:23;52.60;;;26.10;;
29430;SDS011;16404;49.902;10.074;2024-03-08T08:16:07;50.40;;;25.98;;
29430;SDS011;16404;49.902;10.074;2024-03-08T08:21:38;51.13;;;24.15;;
29430;SDS011;16404;49.902;10.074;2024-03-08T08:24:23;50.40;;;26.13;;
29430;SDS011;16404;49.902;10.074;2024-03-08T08:27:08;49.83;;;26.02;;
29430;SDS011;16404;49.902;10.074;2024-03-08T08:29:53;51.80;;;25.27;;
29430;SDS011;16404;49.902;10.074;2024-03-08T08:32:38;52.88;;;25.23;;
29430;SDS011;16404;49.902;10.074;2024-03-08T08:35:31;41.92;;;24.67;;
29430;SDS011;16404;49.902;10.074;2024-03-08T08:38:16;48.85;;;24.38;;
29430;SDS011;16404;49.902;10.074;2024-03-08T08:41:01;52.40;;;25.20;;
29430;SDS011;16404;49.902;10.074;2024-03-08T08:46:30;47.35;;;23.75;;
29430;SDS011;16404;49.902;10.074;2024-03-08T08:49:15;47.45;;;24.30;;
29430;SDS011;16404;49.902;10.074;2024-03-08T08:51:59;40.50;;;23.05;;
29430;SDS011;16404;49.902;10.074;2024-03-08T08:57:29;42.17;;;22.25;;
29430;SDS011;16404;49.902;10.074;2024-03-08T09:00:14;46.20;;;23.25;;
29430;SDS011;16404;49.902;10.074;2024-03-08T09:02:59;43.40;;;23.60;;
29430;SDS011;16404;49.902;10.074;2024-03-08T09:05:43;42.97;;;23.63;;
29430;SDS011;16404;49.902;10.074;2024-03-08T09:08:28;42.22;;;22.35;;
29430;SDS011;16404;49.902;10.074;2024-03-08T09:11:12;40.20;;;22.75;;
29430;SDS011;16404;49.902;10.074;2024-03-08T09:13:57;46.30;;;22.88;;
29430;SDS011;16404;49.902;10.074;2024-03-08T09:16:41;38.83;;;21.83;;
29430;SDS011;16404;49.902;10.074;2024-03-08T09:19:26;38.70;;;21.40;;
29430;SDS011;16404;49.902;10.074;2024-03-08T09:22:11;38.92;;;21.17;;
29430;SDS011;16404;49.902;10.074;2024-03-08T09:24:55;36.58;;;21.10;;
29430;SDS011;16404;49.902;10.074;2024-03-08T09:27:41;40.22;;;21.63;;
29430;SDS011;16404;49.902;10.074;2024-03-08T09:30:26;37.45;;;20.42;;
29430;SDS011;16404;49.902;10.074;2024-03-08T09:33:11;38.63;;;20.45;;
29430;SDS011;16404;49.902;10.074;2024-03-08T09:35:57;39.42;;;20.88;;
29430;SDS011;16404;49.902;10.074;2024-03-08T09:38:42;36.85;;;19.90;;
29430;SDS011;16404;49.902;10.074;2024-03-08T09:41:26;39.97;;;21.23;;
29430;SDS011;16404;49.902;10.074;2024-03-08T09:44:11;38.55;;;20.27;;
29430;SDS011;16404;49.902;10.074;2024-03-08T09:46:55;37.30;;;20.58;;
29430;SDS011;16404;49.902;10.074;2024-03-08T09:49:42;35.58;;;20.00;;
29430;SDS011;16404;49.902;10.074;2024-03-08T09:55:14;35.28;;;19.13;;
29430;SDS011;16404;49.902;10.074;2024-03-08T09:58:01;36.88;;;19.65;;
29430;SDS011;16404;49.902;10.074;2024-03-08T10:01:03;38.72;;;19.17;;
29430;SDS011;16404;49.902;10.074;2024-03-08T10:03:51;29.98;;;17.50;;
29430;SDS011;16404;49.902;10.074;2024-03-08T10:06:36;35.58;;;19.08;;
29430;SDS011;16404;49.902;10.074;2024-03-08T10:09:20;32.67;;;18.17;;
29430;SDS011;16404;49.902;10.074;2024-03-08T10:12:08;34.55;;;18.80;;
29430;SDS011;16404;49.902;10.074;2024-03-08T10:17:42;34.08;;;17.63;;
29430;SDS011;16404;49.902;10.074;2024-03-08T10:20:28;35.97;;;18.70;;
29430;SDS011;16404;49.902;10.074;2024-03-08T10:23:16;34.70;;;18.90;;
29430;SDS011;16404;49.902;10.074;2024-03-08T10:26:11;38.22;;;19.90;;
29430;SDS011;16404;49.902;10.074;2024-03-08T10:28:59;36.50;;;19.10;;
29430;SDS011;16404;49.902;10.074;2024-03-08T10:31:44;39.83;;;20.75;;
29430;SDS011;16404;49.902;10.074;2024-03-08T10:34:28;38.92;;;21.02;;
29430;SDS011;16404;49.902;10.074;2024-03-08T10:40:06;35.78;;;18.67;;
29430;SDS011;16404;49.902;10.074;2024-03-08T10:42:56;34.67;;;19.20;;
29430;SDS011;16404;49.902;10.074;2024-03-08T10:45:45;32.17;;;17.77;;
29430;SDS011;16404;49.902;10.074;2024-03-08T10:48:32;31.65;;;17.92;;
29430;SDS011;16404;49.902;10.074;2024-03-08T10:51:25;34.22;;;18.98;;
29430;SDS011;16404;49.902;10.074;2024-03-08T10:54:11;38.28;;;20.52;;
29430;SDS011;16404;49.902;10.074;2024-03-08T10:56:59;34.08;;;18.95;;
29430;SDS011;16404;49.902;10.074;2024-03-08T10:59:47;35.45;;;18.77;;
29430;SDS011;16404;49.902;10.074;2024-03-08T11:02:33;34.22;;;17.92;;
29430;SDS011;16404;49.902;10.074;2024-03-08T11:08:38;34.97;;;17.77;;
29430;SDS011;16404;49.902;10.074;2024-03-08T11:11:32;29.27;;;16.98;;
29430;SDS011;16404;49.902;10.074;2024-03-08T11:20:16;31.00;;;17.80;;
29430;SDS011;16404;49.902;10.074;2024-03-08T11:23:04;32.25;;;17.80;;
29430;SDS011;16404;49.902;10.074;2024-03-08T11:25:48;33.85;;;18.17;;
29430;SDS011;16404;49.902;10.074;2024-03-08T11:28:36;35.10;;;18.00;;
29430;SDS011;16404;49.902;10.074;2024-03-08T11:34:14;33.70;;;18.33;;
29430;SDS011;16404;49.902;10.074;2024-03-08T11:37:10;34.38;;;17.23;;
29430;SDS011;16404;49.902;10.074;2024-03-08T11:40:01;32.00;;;18.13;;
29430;SDS011;16404;49.902;10.074;2024-03-08T11:42:56;29.33;;;17.00;;
29430;SDS011;16404;49.902;10.074;2024-03-08T11:45:40;32.17;;;17.58;;
29430;SDS011;16404;49.902;10.074;2024-03-08T11:48:25;32.42;;;17.23;;
29430;SDS011;16404;49.902;10.074;2024-03-08T11:51:13;33.10;;;17.73;;
29430;SDS011;16404;49.902;10.074;2024-03-08T11:53:58;35.10;;;18.05;;
29430;SDS011;16404;49.902;10.074;2024-03-08T11:56:44;31.90;;;18.17;;
29430;SDS011;16404;49.902;10.074;2024-03-08T11:59:31;35.83;;;19.17;;
29430;SDS011;16404;49.902;10.074;2024-03-08T12:02:16;32.90;;;17.55;;
29430;SDS011;16404;49.902;10.074;2024-03-08T12:05:03;31.17;;;17.42;;
29430;SDS011;16404;49.902;10.074;2024-03-08T12:07:55;28.98;;;16.52;;
29430;SDS011;16404;49.902;10.074;2024-03-08T12:10:42;33.20;;;16.88;;
29430;SDS011;16404;49.902;10.074;2024-03-08T12:13:33;30.50;;;17.17;;
29430;SDS011;16404;49.902;10.074;2024-03-08T12:16:18;28.15;;;17.17;;
29430;SDS011;16404;49.902;10.074;2024-03-08T12:19:03;27.67;;;14.27;;
29430;SDS011;16404;49.902;10.074;2024-03-08T12:24:32;23.17;;;13.50;;
29430;SDS011;16404;49.902;10.074;2024-03-08T12:27:17;27.23;;;14.10;;
29430;SDS011;16404;49.902;10.074;2024-03-08T12:30:25;32.40;;;15.15;;
29430;SDS011;16404;49.902;10.074;2024-03-08T12:33:12;27.45;;;14.82;;
29430;SDS011;16404;49.902;10.074;2024-03-08T12:35:56;25.15;;;14.57;;
29430;SDS011;16404;49.902;10.074;2024-03-08T12:38:45;24.33;;;15.48;;
29430;SDS011;16404;49.902;10.074;2024-03-08T12:41:38;27.98;;;15.02;;
29430;SDS011;16404;49.902;10.074;2024-03-08T12:44:24;26.85;;;14.55;;
29430;SDS011;16404;49.902;10.074;2024-03-08T12:47:08;27.27;;;15.40;;
29430;SDS011;16404;49.902;10.074;2024-03-08T12:49:53;25.85;;;15.45;;
29430;SDS011;16404;49.902;10.074;2024-03-08T12:52:37;23.58;;;13.90;;
29430;SDS011;16404;49.902;10.074;2024-03-08T12:55:22;24.58;;;13.98;;
29430;SDS011;16404;49.902;10.074;2024-03-08T12:58:06;25.33;;;14.27;;
29430;SDS011;16404;49.902;10.074;2024-03-08T13:00:51;29.23;;;14.88;;
29430;SDS011;16404;49.902;10.074;2024-03-08T13:03:35;32.83;;;16.30;;
29430;SDS011;16404;49.902;10.074;2024-03-08T13:06:21;24.40;;;14.40;;
29430;SDS011;16404;49.902;10.074;2024-03-08T13:09:08;24.55;;;13.27;;
29430;SDS011;16404;49.902;10.074;2024-03-08T13:11:52;21.25;;;12.02;;
29430;SDS011;16404;49.902;10.074;2024-03-08T13:14:40;25.50;;;13.15;;
29430;SDS011;16404;49.902;10.074;2024-03-08T13:17:25;26.52;;;13.40;;
29430;SDS011;16404;49.902;10.074;2024-03-08T13:20:09;23.05;;;13.43;;
29430;SDS011;16404;49.902;10.074;2024-03-08T13:23:00;24.05;;;13.52;;
29430;SDS011;16404;49.902;10.074;2024-03-08T13:28:31;26.15;;;13.95;;
29430;SDS011;16404;49.902;10.074;2024-03-08T13:31:20;20.95;;;11.85;;
29430;SDS011;16404;49.902;10.074;2024-03-08T13:34:05;20.60;;;11.43;;
29430;SDS011;16404;49.902;10.074;2024-03-08T13:36:49;19.67;;;11.13;;
29430;SDS011;16404;49.902;10.074;2024-03-08T13:39:36;17.15;;;10.35;;
29430;SDS011;16404;49.902;10.074;2024-03-08T13:42:24;20.67;;;11.05;;
29430;SDS011;16404;49.902;10.074;2024-03-08T13:45:09;23.38;;;11.98;;
29430;SDS011;16404;49.902;10.074;2024-03-08T13:47:58;19.63;;;11.25;;
29430;SDS011;16404;49.902;10.074;2024-03-08T13:50:43;22.30;;;12.15;;
29430;SDS011;16404;49.902;10.074;2024-03-08T13:53:27;20.15;;;11.40;;
29430;SDS011;16404;49.902;10.074;2024-03-08T13:56:12;20.38;;;11.85;;
29430;SDS011;16404;49.902;10.074;2024-03-08T13:58:58;21.77;;;11.85;;
29430;SDS011;16404;49.902;10.074;2024-03-08T14:01:42;22.48;;;13.40;;
29430;SDS011;16404;49.902;10.074;2024-03-08T14:04:30;22.67;;;12.57;;
29430;SDS011;16404;49.902;10.074;2024-03-08T14:07:14;23.63;;;12.90;;
29430;SDS011;16404;49.902;10.074;2024-03-08T14:10:00;22.40;;;13.07;;
29430;SDS011;16404;49.902;10.074;2024-03-08T14:12:45;23.10;;;12.77;;
29430;SDS011;16404;49.902;10.074;2024-03-08T14:15:32;22.33;;;11.85;;
29430;SDS011;16404;49.902;10.074;2024-03-08T14:18:17;23.92;;;13.60;;
29430;SDS011;16404;49.902;10.074;2024-03-08T14:21:01;25.23;;;13.90;;
29430;SDS011;16404;49.902;10.074;2024-03-08T14:23:47;28.58;;;14.65;;
29430;SDS011;16404;49.902;10.074;2024-03-08T14:26:32;25.80;;;14.40;;
29430;SDS011;16404;49.902;10.074;2024-03-08T14:32:02;27.73;;;13.93;;
29430;SDS011;16404;49.902;10.074;2024-03-08T14:34:49;27.60;;;15.13;;
29430;SDS011;16404;49.902;10.074;2024-03-08T14:37:34;26.80;;;14.93;;
29430;SDS011;16404;49.902;10.074;2024-03-08T14:40:19;26.80;;;15.15;;
29430;SDS011;16404;49.902;10.074;2024-03-08T14:43:06;26.60;;;14.15;;
29430;SDS011;16404;49.902;10.074;2024-03-08T14:45:50;29.17;;;13.85;;
29430;SDS011;16404;49.902;10.074;2024-03-08T14:48:36;24.25;;;14.27;;
29430;SDS011;16404;49.902;10.074;2024-03-08T14:51:21;28.17;;;13.57;;
29430;SDS011;16404;49.902;10.074;2024-03-08T14:54:10;30.00;;;13.70;;
29430;SDS011;16404;49.902;10.074;2024-03-08T14:56:54;27.58;;;14.00;;
29430;SDS011;16404;49.902;10.074;2024-03-08T14:59:40;25.48;;;14.13;;
29430;SDS011;16404;49.902;10.074;2024-03-08T15:02:27;28.33;;;13.60;;
29430;SDS011;16404;49.902;10.074;2024-03-08T15:05:13;24.88;;;13.82;;
29430;SDS011;16404;49.902;10.074;2024-03-08T15:07:58;25.33;;;14.15;;
29430;SDS011;16404;49.902;10.074;2024-03-08T15:10:46;23.42;;;14.10;;
29430;SDS011;16404;49.902;10.074;2024-03-08T15:13:35;26.80;;;13.93;;
29430;SDS011;16404;49.902;10.074;2024-03-08T15:16:25;25.13;;;13.77;;
29430;SDS011;16404;49.902;10.074;2024-03-08T15:19:10;22.67;;;13.63;;
29430;SDS011;16404;49.902;10.074;2024-03-08T15:21:55;31.75;;;16.30;;
29430;SDS011;16404;49.902;10.074;2024-03-08T15:24:42;22.65;;;14.20;;
29430;SDS011;16404;49.902;10.074;2024-03-08T15:30:12;28.35;;;14.63;;
29430;SDS011;16404;49.902;10.074;2024-03-08T15:33:00;24.95;;;13.57;;
29430;SDS011;16404;49.902;10.074;2024-03-08T15:35:46;25.05;;;12.73;;
29430;SDS011;16404;49.902;10.074;2024-03-08T15:38:34;24.58;;;12.93;;
29430;SDS011;16404;49.902;10.074;2024-03-08T15:41:20;19.73;;;12.38;;
29430;SDS011;16404;49.902;10.074;2024-03-08T15:44:04;21.88;;;12.40;;
29430;SDS011;16404;49.902;10.074;2024-03-08T15:46:49;21.48;;;12.20;;
29430;SDS011;16404;49.902;10.074;2024-03-08T15:49:33;23.30;;;12.43;;
29430;SDS011;16404;49.902;10.074;2024-03-08T15:52:18;23.80;;;12.73;;
29430;SDS011;16404;49.902;10.074;2024-03-08T15:55:03;19.90;;;12.23;;
29430;SDS011;16404;49.902;10.074;2024-03-08T15:57:49;22.98;;;12.52;;
29430;SDS011;16404;49.902;10.074;2024-03-08T16:00:34;24.45;;;11.20;;
29430;SDS011;16404;49.902;10.074;2024-03-08T16:03:19;22.77;;;11.38;;
29430;SDS011;16404;49.902;10.074;2024-03-08T16:06:04;20.15;;;11.20;;
29430;SDS011;16404;49.902;10.074;2024-03-08T16:08:50;18.13;;;10.32;;
29430;SDS011;16404;49.902;10.074;2024-03-08T16:11:34;27.15;;;10.90;;
29430;SDS011;16404;49.902;10.074;2024-03-08T16:14:22;15.75;;;9.93;;
29430;SDS011;16404;49.902;10.074;2024-03-08T16:19:52;17.60;;;9.60;;
29430;SDS011;16404;49.902;10.074;2024-03-08T16:22:42;18.50;;;10.02;;
29430;SDS011;16404;49.902;10.074;2024-03-08T16:25:27;17.17;;;10.35;;
29430;SDS011;16404;49.902;10.074;2024-03-08T16:28:12;19.55;;;9.73;;
29430;SDS011;16404;49.902;10.074;2024-03-08T16:33:42;17.40;;;9.98;;
29430;SDS011;16404;49.902;10.074;2024-03-08T16:36:28;23.50;;;10.15;;
29430;SDS011;16404;49.902;10.074;2024-03-08T16:39:12;15.65;;;9.32;;
29430;SDS011;16404;49.902;10.074;2024-03-08T16:41:57;20.38;;;9.50;;
29430;SDS011;16404;49.902;10.074;2024-03-08T16:47:26;16.30;;;9.73;;
29430;SDS011;16404;49.902;10.074;2024-03-08T16:50:11;17.00;;;10.77;;
29430;SDS011;16404;49.902;10.074;2024-03-08T16:53:00;19.75;;;9.63;;
29430;SDS011;16404;49.902;10.074;2024-03-08T16:55:44;15.55;;;9.43;;